Time;durP1;ratioP1;P1;durP2;ratioP2;P2;SDS_P1;SDS_P2;PMS_P1;PMS_P2;Temp;Humidity;BMP_temperature;BMP_pressure;BME280_temperature;BME280_humidity;BME280_pressure;Samples;Min_cycle;Max_cycle;Signal;HPM_P1;HPM_P2
2024/01/20 00:02:06;;;;;;;8.47;4.33;;;-3.00;99.90;-3.50;101205.00;;;;4923731;28;107175;-65
2024/01/20 00:04:32;;;;;;;8.90;3.90;;;-3.00;99.90;-3.40;101191.00;;;;4920770;28;87453;-65
2024/01/20 00:06:57;;;;;;;9.13;5.33;;;-2.10;99.90;-3.40;101199.00;;;;4918765;28;116528;-65
2024/01/20 00:09:23;;;;;;;6.03;3.70;;;-2.90;99.90;-3.40;101197.00;;;;4919397;28;109728;-65
2024/01/20 00:11:48;;;;;;;8.23;4.30;;;-3.00;99.90;-3.40;101197.00;;;;4919131;28;109102;-64
2024/01/20 00:14:14;;;;;;;10.20;4.80;;;-2.90;99.90;-3.30;101193.00;;;;4919349;28;117837;-65
2024/01/20 00:16:40;;;;;;;6.83;5.33;;;-2.80;99.90;-3.30;101205.00;;;;4917200;28;117731;-64
2024/01/20 00:19:06;;;;;;;7.50;4.67;;;-2.80;99.90;-3.20;101215.00;;;;4921489;28;88128;-66
2024/01/20 00:21:32;;;;;;;9.50;5.00;;;-2.80;99.90;-3.20;101185.00;;;;4919558;28;88175;-65
2024/01/20 00:23:57;;;;;;;6.00;4.10;;;-2.70;99.90;-3.20;101205.00;;;;4924279;28;87888;-65
2024/01/20 00:26:23;;;;;;;6.17;4.07;;;-2.80;99.90;-3.20;101211.00;;;;4922211;28;87971;-64
2024/01/20 00:28:48;;;;;;;9.67;4.80;;;-2.70;99.90;-3.20;101216.00;;;;4922945;28;109908;-65
2024/01/20 00:31:15;;;;;;;9.90;5.10;;;-2.70;99.90;-3.10;101217.00;;;;4917768;28;107506;-65
2024/01/20 00:33:40;;;;;;;6.67;4.60;;;-2.70;99.90;-3.10;101215.00;;;;4919072;28;88237;-65
2024/01/20 00:36:07;;;;;;;9.13;4.50;;;-2.60;99.90;-3.10;101224.00;;;;4917840;28;116899;-64
2024/01/20 00:38:33;;;;;;;6.73;5.47;;;-2.70;99.90;-3.10;101219.00;;;;4917511;28;87931;-64
2024/01/20 00:40:59;;;;;;;6.63;4.40;;;-2.60;99.90;-3.10;101239.00;;;;4919565;28;108577;-65
2024/01/20 00:43:24;;;;;;;7.30;4.07;;;-2.60;99.90;-3.10;101232.00;;;;4919845;28;119076;-64
2024/01/20 00:45:50;;;;;;;8.97;3.73;;;-2.70;99.90;-3.10;101236.00;;;;4915085;28;117670;-63
2024/01/20 00:48:16;;;;;;;8.93;4.50;;;-2.60;99.90;-3.10;101223.00;;;;4917066;28;106957;-63
2024/01/20 00:50:41;;;;;;;6.57;4.00;;;-2.60;99.90;-3.10;101236.00;;;;4918189;28;110231;-65
2024/01/20 00:53:07;;;;;;;5.67;3.53;;;-2.60;99.90;-3.10;101229.00;;;;4916902;28;88082;-64
2024/01/20 00:55:33;;;;;;;11.77;4.90;;;-2.70;99.90;-3.10;101232.00;;;;4919843;28;117264;-64
2024/01/20 00:57:58;;;;;;;8.73;4.83;;;-2.60;99.90;-3.10;101237.00;;;;4916817;28;109949;-64
2024/01/20 01:00:24;;;;;;;5.87;3.77;;;-2.70;99.90;-3.20;101242.00;;;;4919556;28;88980;-63
2024/01/20 01:02:50;;;;;;;9.03;4.53;;;-2.70;99.90;-3.20;101249.00;;;;4918013;28;117686;-64
2024/01/20 01:05:15;;;;;;;6.60;3.93;;;-2.70;99.90;-3.20;101258.00;;;;4918465;28;88397;-64
2024/01/20 01:07:41;;;;;;;6.80;3.87;;;-2.60;99.90;-3.20;101260.00;;;;4917765;28;110816;-63
2024/01/20 01:10:07;;;;;;;8.43;4.07;;;-2.70;99.90;-3.20;101259.00;;;;4921346;28;110281;-63
2024/01/20 01:12:34;;;;;;;5.47;3.67;;;-2.70;99.90;-3.20;101261.00;;;;4918142;28;110769;-63
2024/01/20 01:14:59;;;;;;;7.63;4.43;;;-2.70;99.90;-3.20;101266.00;;;;4922899;28;94176;-64
2024/01/20 01:17:25;;;;;;;12.93;5.70;;;-2.70;99.90;-3.20;101266.00;;;;4916483;28;109906;-64
2024/01/20 01:19:51;;;;;;;6.00;4.17;;;-2.70;99.90;-3.20;101258.00;;;;4919736;28;108213;-64
2024/01/20 01:22:16;;;;;;;11.30;4.90;;;-2.70;99.90;-3.20;101248.00;;;;4917933;28;106718;-64
2024/01/20 01:24:42;;;;;;;8.00;4.47;;;-2.70;99.90;-3.20;101266.00;;;;4914815;28;109178;-63
2024/01/20 01:27:08;;;;;;;5.97;3.73;;;-2.60;99.90;-3.10;101258.00;;;;4929545;28;110306;-63
2024/01/20 01:29:33;;;;;;;5.43;4.13;;;-2.70;99.90;-3.10;101259.00;;;;4917357;28;108458;-63
2024/01/20 01:31:59;;;;;;;9.00;4.90;;;-2.70;99.90;-3.10;101258.00;;;;4920465;28;117431;-62
2024/01/20 01:34:25;;;;;;;6.73;4.07;;;-2.80;99.90;-3.10;101247.00;;;;4921991;28;118120;-63
2024/01/20 01:36:50;;;;;;;9.77;4.67;;;-2.50;99.90;-3.10;101256.00;;;;4919098;28;110384;-64
2024/01/20 01:39:17;;;;;;;8.10;4.07;;;-2.60;99.90;-3.00;101254.00;;;;4915639;28;108970;-63
2024/01/20 01:41:43;;;;;;;10.90;5.27;;;-2.60;99.90;-3.00;101261.00;;;;4920739;28;87047;-64
2024/01/20 01:44:09;;;;;;;7.77;4.57;;;-2.50;99.90;-3.00;101253.00;;;;4917475;28;109875;-64
2024/01/20 01:46:35;;;;;;;5.77;3.90;;;-2.50;99.90;-3.00;101263.00;;;;4919924;28;109501;-64
2024/01/20 01:49:01;;;;;;;9.80;4.53;;;-2.50;99.90;-3.00;101266.00;;;;4922382;28;88753;-64
2024/01/20 01:51:28;;;;;;;5.27;3.73;;;-2.50;99.90;-2.90;101269.00;;;;4918812;28;104293;-63
2024/01/20 01:53:56;;;;;;;9.83;4.50;;;-2.50;99.90;-2.90;101276.00;;;;4917662;28;88157;-63
2024/01/20 01:56:22;;;;;;;7.13;4.40;;;-2.40;99.90;-2.90;101257.00;;;;4916802;28;99492;-65
2024/01/20 01:58:48;;;;;;;9.43;3.97;;;-2.50;99.90;-3.00;101255.00;;;;4914845;28;108266;-63
2024/01/20 02:01:13;;;;;;;7.07;4.63;;;-2.50;99.90;-2.90;101268.00;;;;4916289;28;117467;-64
2024/01/20 02:03:39;;;;;;;10.20;4.37;;;-2.40;99.90;-2.90;101270.00;;;;4916684;28;118032;-64
2024/01/20 02:06:09;;;;;;;7.83;4.43;;;-2.50;99.90;-2.90;101273.00;;;;4919639;28;101007;-65
2024/01/20 02:08:35;;;;;;;6.37;3.57;;;-2.50;99.90;-2.90;101284.00;;;;4916571;28;98768;-65
2024/01/20 02:11:02;;;;;;;9.30;5.10;;;-2.50;99.90;-3.00;101277.00;;;;4918834;28;87911;-63
2024/01/20 02:13:28;;;;;;;9.20;4.50;;;-2.40;99.90;-3.00;101267.00;;;;4919468;28;102722;-65
2024/01/20 02:15:54;;;;;;;5.77;4.00;;;-2.50;99.90;-2.90;101273.00;;;;4916027;28;110543;-65
2024/01/20 02:18:23;;;;;;;9.23;4.27;;;-2.50;99.90;-2.90;101282.00;;;;4916907;28;93345;-62
2024/01/20 02:20:49;;;;;;;9.10;4.23;;;-2.50;99.90;-3.00;101270.00;;;;4914515;28;115377;-63
2024/01/20 02:23:15;;;;;;;9.87;4.80;;;-2.50;99.90;-3.00;101281.00;;;;4918516;28;93478;-65
2024/01/20 02:25:41;;;;;;;7.10;4.30;;;-2.50;99.90;-3.00;101285.00;;;;4920523;28;110852;-62
2024/01/20 02:28:06;;;;;;;6.83;4.07;;;-2.40;99.90;-3.00;101288.00;;;;4918523;28;89312;-63
2024/01/20 02:30:32;;;;;;;9.60;3.90;;;-2.40;99.90;-3.00;101277.00;;;;4916896;28;115996;-63
2024/01/20 02:32:58;;;;;;;4.10;3.40;;;-2.50;99.90;-3.00;101275.00;;;;4916535;28;117199;-63
2024/01/20 02:35:23;;;;;;;7.27;3.93;;;-2.50;99.90;-3.00;101276.00;;;;4917763;28;109695;-64
2024/01/20 02:37:49;;;;;;;4.63;3.53;;;-2.50;99.90;-3.00;101283.00;;;;4917829;28;108823;-63
2024/01/20 02:40:15;;;;;;;7.17;4.27;;;-2.10;99.90;-3.00;101267.00;;;;4920393;28;117607;-64
2024/01/20 02:42:41;;;;;;;10.93;4.40;;;-2.50;99.90;-3.00;101277.00;;;;4921773;28;103855;-63
2024/01/20 02:45:07;;;;;;;6.30;4.03;;;-2.40;99.90;-3.00;101282.00;;;;4918046;28;88132;-63
2024/01/20 02:47:33;;;;;;;7.20;4.40;;;-2.50;99.90;-3.00;101284.00;;;;4915500;28;87793;-63
2024/01/20 02:49:58;;;;;;;7.80;3.93;;;-2.50;99.90;-3.00;101291.00;;;;4923363;28;88107;-65
2024/01/20 02:52:24;;;;;;;4.30;3.33;;;-2.50;99.90;-3.00;101286.00;;;;4915488;28;119389;-65
2024/01/20 02:54:50;;;;;;;4.97;3.77;;;-2.40;99.90;-3.00;101292.00;;;;4920139;28;110595;-64
2024/01/20 02:57:16;;;;;;;4.27;3.23;;;-2.60;99.90;-3.00;101307.00;;;;4916733;28;108985;-63
2024/01/20 02:59:42;;;;;;;8.57;3.93;;;-2.60;99.90;-3.10;101305.00;;;;4918006;28;91048;-65
2024/01/20 03:02:07;;;;;;;6.90;4.13;;;-2.50;99.90;-3.10;101295.00;;;;4920165;28;116622;-63
2024/01/20 03:04:33;;;;;;;4.23;3.37;;;-2.60;99.90;-3.10;101300.00;;;;4919342;28;111311;-63
2024/01/20 03:06:58;;;;;;;7.50;4.60;;;-2.60;99.90;-3.10;101293.00;;;;4915830;28;108094;-63
2024/01/20 03:09:24;;;;;;;6.13;4.10;;;-2.60;99.90;-3.10;101311.00;;;;4918443;28;117783;-65
2024/01/20 03:11:50;;;;;;;8.23;4.13;;;-2.70;99.90;-3.10;101302.00;;;;4913686;28;117942;-62
2024/01/20 03:14:15;;;;;;;8.67;4.33;;;-2.60;99.90;-3.10;101309.00;;;;4920552;28;109356;-64
2024/01/20 03:16:41;;;;;;;6.00;4.20;;;-2.70;99.90;-3.10;101305.00;;;;4915085;28;108121;-63
2024/01/20 03:19:07;;;;;;;7.20;4.27;;;-2.70;99.90;-3.20;101307.00;;;;4931887;28;115937;-63
2024/01/20 03:21:33;;;;;;;8.30;4.10;;;-2.20;99.90;-3.10;101315.00;;;;4925028;28;87846;-63
2024/01/20 03:23:59;;;;;;;5.57;2.73;;;-2.60;99.90;-3.10;101318.00;;;;4920326;28;87827;-63
2024/01/20 03:26:25;;;;;;;5.97;3.93;;;-2.60;99.90;-3.10;101311.00;;;;4922832;28;89086;-63
2024/01/20 03:28:51;;;;;;;5.73;3.80;;;-2.70;99.90;-3.20;101314.00;;;;4923383;28;88460;-63
2024/01/20 03:31:17;;;;;;;6.10;3.77;;;-2.70;99.90;-3.20;101317.00;;;;4916588;28;117307;-64
2024/01/20 03:33:43;;;;;;;6.93;4.03;;;-2.70;99.90;-3.20;101315.00;;;;4916094;28;87852;-63
2024/01/20 03:36:10;;;;;;;7.60;4.70;;;-2.70;99.90;-3.20;101302.00;;;;4917277;28;87975;-63
2024/01/20 03:38:36;;;;;;;9.97;4.00;;;-2.70;99.90;-3.20;101299.00;;;;4917143;28;88988;-63
2024/01/20 03:41:02;;;;;;;6.77;3.73;;;-2.70;99.90;-3.20;101307.00;;;;4894985;28;116259;-63
2024/01/20 03:43:27;;;;;;;4.97;3.33;;;-2.70;99.90;-3.20;101307.00;;;;4898732;28;103366;-63
2024/01/20 03:45:53;;;;;;;6.83;4.10;;;-2.70;99.90;-3.30;101313.00;;;;4897240;28;88059;-64
2024/01/20 03:48:19;;;;;;;5.23;3.90;;;-2.70;99.90;-3.20;101323.00;;;;4896414;28;103418;-63
2024/01/20 03:50:45;;;;;;;6.60;4.10;;;-2.70;99.90;-3.30;101324.00;;;;4900464;28;108324;-64
2024/01/20 03:53:10;;;;;;;5.50;3.13;;;-2.80;99.90;-3.30;101317.00;;;;4896063;28;109953;-63
2024/01/20 03:55:36;;;;;;;5.80;3.47;;;-2.70;99.90;-3.30;101316.00;;;;4897123;28;87801;-63
2024/01/20 03:58:02;;;;;;;6.20;3.40;;;-2.80;99.90;-3.30;101320.00;;;;4895777;28;98231;-63
2024/01/20 04:00:28;;;;;;;6.17;3.63;;;-2.70;99.90;-3.30;101315.00;;;;4892988;28;99458;-64
2024/01/20 04:02:54;;;;;;;6.63;3.83;;;-2.80;99.90;-3.30;101323.00;;;;4900545;28;108348;-63
2024/01/20 04:05:20;;;;;;;5.20;3.33;;;-2.80;99.90;-3.30;101321.00;;;;4900826;28;109572;-62
2024/01/20 04:07:46;;;;;;;7.83;3.80;;;-3.50;99.90;-3.30;101329.00;;;;4900360;28;114978;-64
2024/01/20 04:10:12;;;;;;;6.77;3.60;;;-2.80;99.90;-3.30;101326.00;;;;4901699;28;115607;-62
2024/01/20 04:12:39;;;;;;;9.00;3.87;;;-2.70;99.90;-3.30;101325.00;;;;4900304;28;87854;-64
2024/01/20 04:15:06;;;;;;;10.57;4.13;;;-2.80;99.90;-3.30;101328.00;;;;4929571;28;89210;-64
2024/01/20 04:17:32;;;;;;;8.13;4.13;;;-2.80;99.90;-3.20;101324.00;;;;4904739;28;107889;-64
2024/01/20 04:19:57;;;;;;;4.07;3.27;;;-2.70;99.90;-3.20;101333.00;;;;4899482;28;94518;-63
2024/01/20 04:22:23;;;;;;;7.27;3.80;;;-2.70;99.90;-3.20;101341.00;;;;4900903;28;89709;-63
2024/01/20 04:24:54;;;;;;;4.30;3.37;;;-2.70;99.90;-3.20;101350.00;;;;4898580;28;109413;-64
2024/01/20 04:27:20;;;;;;;8.17;3.63;;;-2.70;99.90;-3.20;101355.00;;;;4899403;28;118665;-64
2024/01/20 04:29:46;;;;;;;6.87;4.53;;;-2.70;99.90;-3.20;101342.00;;;;4898197;28;116447;-63
2024/01/20 04:32:11;;;;;;;5.37;3.57;;;-2.70;99.90;-3.20;101346.00;;;;4901994;28;87122;-63
2024/01/20 04:34:37;;;;;;;6.20;3.83;;;-1.80;99.90;-3.20;101356.00;;;;4901371;28;108801;-62
2024/01/20 04:37:03;;;;;;;6.07;3.97;;;-2.70;99.90;-3.20;101349.00;;;;4906173;28;88672;-63
2024/01/20 04:39:29;;;;;;;4.53;3.97;;;-2.60;99.90;-3.20;101346.00;;;;4901055;28;103764;-62
2024/01/20 04:41:54;;;;;;;5.03;3.27;;;-2.70;99.90;-3.20;101350.00;;;;4904840;28;109251;-63
2024/01/20 04:44:21;;;;;;;6.83;4.13;;;-2.70;99.90;-3.20;101364.00;;;;4902775;28;109659;-64
2024/01/20 04:46:46;;;;;;;4.53;3.13;;;-2.70;99.90;-3.20;101368.00;;;;4903199;28;87928;-63
2024/01/20 04:49:12;;;;;;;10.13;3.77;;;-2.60;99.90;-3.20;101368.00;;;;4900341;28;116767;-63
2024/01/20 04:51:37;;;;;;;4.23;2.87;;;-2.80;99.90;-3.20;101368.00;;;;4898610;28;108686;-63
2024/01/20 04:54:03;;;;;;;5.50;4.03;;;-2.70;99.90;-3.20;101365.00;;;;4900915;28;90677;-64
2024/01/20 04:56:29;;;;;;;6.93;4.20;;;-2.70;99.90;-3.20;101375.00;;;;4899370;28;108649;-64
2024/01/20 04:58:55;;;;;;;7.50;3.97;;;-2.80;99.90;-3.20;101371.00;;;;4901403;28;105220;-64
2024/01/20 05:01:21;;;;;;;8.40;4.03;;;-2.80;99.90;-3.30;101386.00;;;;4903033;28;87879;-63
2024/01/20 05:03:46;;;;;;;10.47;3.90;;;-2.80;99.90;-3.30;101388.00;;;;4900800;28;107881;-63
2024/01/20 05:06:13;;;;;;;7.23;4.43;;;-2.80;99.90;-3.30;101385.00;;;;4898600;28;117683;-64
2024/01/20 05:08:38;;;;;;;7.13;3.90;;;-2.70;99.90;-3.40;101394.00;;;;4902367;28;98083;-63
2024/01/20 05:11:04;;;;;;;7.30;4.53;;;-2.90;99.90;-3.40;101381.00;;;;4898244;28;109357;-63
2024/01/20 05:13:31;;;;;;;4.13;3.13;;;-2.90;99.90;-3.40;101385.00;;;;4901083;28;108375;-62
2024/01/20 05:15:56;;;;;;;7.47;4.23;;;-2.90;99.90;-3.50;101385.00;;;;4903075;28;88874;-63
2024/01/20 05:18:22;;;;;;;5.90;4.07;;;-3.00;99.90;-3.50;101385.00;;;;4901813;28;89539;-63
2024/01/20 05:20:48;;;;;;;8.10;4.07;;;-3.00;99.90;-3.50;101396.00;;;;4900675;28;102385;-64
2024/01/20 05:23:13;;;;;;;5.70;4.50;;;-3.00;99.90;-3.50;101397.00;;;;4897477;28;90755;-64
2024/01/20 05:25:39;;;;;;;6.93;4.33;;;-3.00;99.90;-3.60;101395.00;;;;4892650;28;112114;-63
2024/01/20 05:28:05;;;;;;;6.83;4.27;;;-3.00;99.90;-3.60;101398.00;;;;4895428;28;117315;-63
2024/01/20 05:30:31;;;;;;;10.93;4.67;;;-3.10;99.90;-3.60;101402.00;;;;4897110;28;110717;-64
2024/01/20 05:32:57;;;;;;;10.57;4.60;;;-3.10;99.90;-3.60;101399.00;;;;4896193;28;87856;-63
2024/01/20 05:35:23;;;;;;;4.33;3.70;;;-3.10;99.90;-3.60;101393.00;;;;4896188;28;92675;-63
2024/01/20 05:37:48;;;;;;;6.07;3.93;;;-3.00;99.90;-3.60;101406.00;;;;4898295;28;105846;-64
2024/01/20 05:40:14;;;;;;;5.70;3.37;;;-3.10;99.90;-3.50;101402.00;;;;4895550;28;93828;-63
2024/01/20 05:42:40;;;;;;;10.83;4.43;;;-3.00;99.90;-3.50;101404.00;;;;4895288;28;88472;-63
2024/01/20 05:45:09;;;;;;;9.00;4.50;;;-3.10;99.90;-3.50;101393.00;;;;4897874;28;97080;-63
2024/01/20 05:47:37;;;;;;;8.37;4.60;;;-2.90;99.90;-3.50;101403.00;;;;4896221;28;92451;-62
2024/01/20 05:50:04;;;;;;;7.57;4.10;;;-3.00;99.90;-3.50;101407.00;;;;4896090;28;87819;-65
2024/01/20 05:52:29;;;;;;;7.03;3.90;;;-3.00;99.90;-3.50;101407.00;;;;4896762;28;88912;-63
2024/01/20 05:54:55;;;;;;;6.37;4.27;;;-2.90;99.90;-3.50;101409.00;;;;4899622;28;118221;-64
2024/01/20 05:57:21;;;;;;;6.70;4.10;;;-3.00;99.90;-3.50;101424.00;;;;4898167;28;116936;-64
2024/01/20 05:59:46;;;;;;;5.30;3.97;;;-2.90;99.90;-3.50;101417.00;;;;4891209;28;111074;-64
2024/01/20 06:02:12;;;;;;;6.80;4.50;;;-2.50;99.90;-3.50;101414.00;;;;4901017;28;89020;-63
2024/01/20 06:04:38;;;;;;;4.90;3.67;;;-3.10;99.90;-3.50;101434.00;;;;4895860;28;89172;-64
2024/01/20 06:07:04;;;;;;;9.27;4.23;;;-3.00;99.90;-3.60;101438.00;;;;4891357;28;117572;-64
2024/01/20 06:09:29;;;;;;;6.97;4.20;;;-3.00;99.90;-3.60;101430.00;;;;4891824;28;109119;-63
2024/01/20 06:11:55;;;;;;;4.57;3.37;;;-3.00;99.90;-3.60;101439.00;;;;4895477;28;89872;-63
2024/01/20 06:14:21;;;;;;;7.13;4.40;;;-3.00;99.90;-3.60;101435.00;;;;4896820;28;89009;-64
2024/01/20 06:16:46;;;;;;;4.47;3.97;;;-3.00;99.90;-3.60;101440.00;;;;4893581;28;116008;-63
2024/01/20 06:19:12;;;;;;;6.67;3.83;;;-3.10;99.90;-3.60;101431.00;;;;4898862;28;109119;-64
2024/01/20 06:21:38;;;;;;;4.23;3.83;;;-3.20;99.90;-3.60;101427.00;;;;4893242;28;97904;-63
2024/01/20 06:24:04;;;;;;;5.53;3.50;;;-3.20;99.90;-3.60;101421.00;;;;4896230;28;88865;-64
2024/01/20 06:26:30;;;;;;;7.40;4.63;;;-3.00;99.90;-3.60;101439.00;;;;4893470;28;93391;-64
2024/01/20 06:28:55;;;;;;;8.97;3.67;;;-3.10;99.90;-3.60;101434.00;;;;4895685;28;88024;-63
2024/01/20 06:31:27;;;;;;;6.50;4.10;;;-3.10;99.90;-3.60;101434.00;;;;4896780;28;88121;-64
2024/01/20 06:33:53;;;;;;;7.07;4.43;;;-3.20;99.90;-3.60;101428.00;;;;4895243;28;87582;-63
2024/01/20 06:36:26;;;;;;;7.10;3.87;;;-3.10;99.90;-3.60;101440.00;;;;4893637;28;106478;-63
2024/01/20 06:38:52;;;;;;;6.40;4.13;;;-3.20;99.90;-3.60;101442.00;;;;4895175;28;87926;-63
2024/01/20 06:41:18;;;;;;;7.43;3.93;;;-3.10;99.90;-3.60;101445.00;;;;4889109;28;101247;-64
2024/01/20 06:43:44;;;;;;;5.97;3.57;;;-3.10;99.90;-3.60;101449.00;;;;4899859;28;116440;-64
2024/01/20 06:46:12;;;;;;;6.93;4.10;;;-3.10;99.90;-3.60;101458.00;;;;4900382;28;88005;-63
2024/01/20 06:48:38;;;;;;;6.30;3.83;;;-3.10;99.90;-3.50;101456.00;;;;4897424;28;109668;-63
2024/01/20 06:51:04;;;;;;;7.77;3.77;;;-3.10;99.90;-3.50;101466.00;;;;4900346;28;107962;-63
2024/01/20 06:53:31;;;;;;;4.53;3.17;;;-3.10;99.90;-3.50;101461.00;;;;4923225;28;110978;-63
2024/01/20 06:55:57;;;;;;;6.73;3.70;;;-3.00;99.90;-3.50;101469.00;;;;4896983;28;88828;-63
2024/01/20 06:58:24;;;;;;;7.37;4.70;;;-3.10;99.90;-3.40;101481.00;;;;4902065;28;110768;-63
2024/01/20 07:00:50;;;;;;;4.70;3.57;;;-3.00;99.90;-3.40;101466.00;;;;4902288;28;88086;-63
2024/01/20 07:03:16;;;;;;;10.97;4.60;;;-2.90;99.90;-3.40;101480.00;;;;4895561;28;89047;-63
2024/01/20 07:05:42;;;;;;;8.50;4.37;;;-2.90;99.90;-3.30;101471.00;;;;4897597;28;107990;-64
2024/01/20 07:08:09;;;;;;;4.57;3.33;;;-2.80;99.90;-3.30;101482.00;;;;4900179;28;109061;-64
2024/01/20 07:10:35;;;;;;;6.27;3.33;;;-2.80;99.90;-3.30;101486.00;;;;4901216;28;108376;-64
2024/01/20 07:13:01;;;;;;;5.50;3.73;;;-2.70;99.90;-3.30;101475.00;;;;4897452;28;117827;-65
2024/01/20 07:15:26;;;;;;;11.27;4.10;;;-2.80;99.90;-3.20;101494.00;;;;4898647;28;106602;-64
2024/01/20 07:17:57;;;;;;;7.53;4.00;;;-2.70;99.90;-3.30;101494.00;;;;4900064;28;87926;-64
2024/01/20 07:20:24;;;;;;;7.13;3.83;;;-2.70;99.90;-3.20;101495.00;;;;4902630;28;87825;-64
2024/01/20 07:22:50;;;;;;;6.40;3.47;;;-2.80;99.90;-3.20;101506.00;;;;4898522;28;89173;-64
2024/01/20 07:25:18;;;;;;;5.07;3.20;;;-2.70;99.90;-3.10;101511.00;;;;4897395;28;87740;-64
2024/01/20 07:27:44;;;;;;;6.00;2.90;;;-2.70;99.90;-3.00;101500.00;;;;4896114;28;97935;-64
2024/01/20 07:30:10;;;;;;;3.40;2.70;;;-2.60;99.90;-2.90;101509.00;;;;4898755;28;108649;-64
2024/01/20 07:32:39;;;;;;;6.77;3.90;;;-2.40;99.90;-2.80;101503.00;;;;4899748;28;89314;-62
2024/01/20 07:35:07;;;;;;;5.90;4.43;;;-2.40;99.90;-2.60;101504.00;;;;4899947;28;88360;-64
2024/01/20 07:37:35;;;;;;;5.60;2.93;;;-2.20;99.90;-2.50;101500.00;;;;4902302;28;88829;-63
2024/01/20 07:40:03;;;;;;;7.20;3.33;;;-2.00;99.90;-2.40;101508.00;;;;4899287;28;88063;-64
2024/01/20 07:42:29;;;;;;;4.50;2.87;;;-2.00;99.90;-2.30;101517.00;;;;4900308;28;87879;-64
2024/01/20 07:44:54;;;;;;;8.00;4.27;;;-1.80;99.90;-2.20;101521.00;;;;4901317;28;87974;-64
2024/01/20 07:47:20;;;;;;;7.00;4.07;;;-1.80;99.90;-2.10;101527.00;;;;4895601;28;111112;-63
2024/01/20 07:49:46;;;;;;;5.67;3.37;;;-1.60;99.90;-2.00;101523.00;;;;4903601;28;108677;-63
2024/01/20 07:52:11;;;;;;;5.67;2.57;;;-1.60;99.90;-1.90;101531.00;;;;4903152;28;116371;-64
2024/01/20 07:54:37;;;;;;;3.37;2.97;;;-1.40;99.90;-1.90;101532.00;;;;4899837;28;115859;-64
2024/01/20 07:57:03;;;;;;;4.40;2.70;;;-1.40;99.90;-2.00;101534.00;;;;4901480;28;109862;-63
2024/01/20 07:59:29;;;;;;;3.43;2.67;;;-1.40;99.90;-2.00;101541.00;;;;4902332;28;99001;-63
2024/01/20 08:01:55;;;;;;;4.50;3.03;;;-0.90;99.90;-1.90;101549.00;;;;4905323;28;88653;-64
2024/01/20 08:04:20;;;;;;;5.80;3.53;;;-1.50;99.90;-1.80;101542.00;;;;4901475;28;97225;-64
2024/01/20 08:06:46;;;;;;;5.07;3.67;;;-1.40;99.90;-1.60;101538.00;;;;4899604;28;97297;-65
2024/01/20 08:09:12;;;;;;;11.20;4.23;;;-1.20;99.90;-1.40;101546.00;;;;4898019;28;109512;-65
2024/01/20 08:11:38;;;;;;;4.03;2.73;;;-1.00;99.90;-1.30;101548.00;;;;4903709;28;88173;-65
2024/01/20 08:14:03;;;;;;;3.13;2.83;;;-0.90;99.90;-1.10;101551.00;;;;4898292;28;116048;-65
2024/01/20 08:16:29;;;;;;;7.20;3.13;;;-0.70;99.90;-1.10;101549.00;;;;4901768;28;110457;-66
2024/01/20 08:18:55;;;;;;;4.63;3.37;;;-0.60;99.90;-0.90;101551.00;;;;4927177;28;108511;-66
2024/01/20 08:21:21;;;;;;;4.47;2.67;;;-0.50;99.90;-0.80;101558.00;;;;4898192;28;87948;-65
2024/01/20 08:23:47;;;;;;;6.27;3.03;;;-0.20;99.90;-0.70;101559.00;;;;4903913;28;93826;-66
2024/01/20 08:26:13;;;;;;;6.07;2.90;;;-0.30;99.90;-0.60;101558.00;;;;4900003;28;108262;-66
2024/01/20 08:28:39;;;;;;;9.87;2.77;;;-0.20;99.90;-0.50;101551.00;;;;4932603;28;87882;-66
2024/01/20 08:31:05;;;;;;;6.13;2.53;;;0.00;99.90;-0.40;101545.00;;;;4899279;28;115559;-67
2024/01/20 08:33:31;;;;;;;5.40;2.90;;;0.00;99.90;-0.30;101546.00;;;;4898991;28;87912;-66
2024/01/20 08:35:57;;;;;;;3.37;2.17;;;0.20;99.90;-0.20;101550.00;;;;4901970;28;87365;-67
2024/01/20 08:38:22;;;;;;;3.50;2.43;;;0.50;99.90;-0.10;101559.00;;;;4899104;28;108844;-67
2024/01/20 08:40:48;;;;;;;5.07;2.53;;;0.20;99.90;0.00;101554.00;;;;4897437;28;116938;-67
2024/01/20 08:43:15;;;;;;;8.13;2.63;;;0.40;99.90;0.10;101551.00;;;;4901322;28;105559;-67
2024/01/20 08:45:41;;;;;;;3.27;2.23;;;0.60;99.90;0.20;101562.00;;;;4898811;28;87926;-66
2024/01/20 08:48:08;;;;;;;3.63;2.60;;;0.70;99.90;0.20;101567.00;;;;4897959;28;101118;-66
2024/01/20 08:50:33;;;;;;;6.37;2.40;;;0.80;99.90;0.30;101579.00;;;;4897496;28;117979;-66
2024/01/20 08:52:59;;;;;;;2.97;2.63;;;0.70;99.90;0.40;101582.00;;;;4899429;28;116494;-67
2024/01/20 08:55:25;;;;;;;2.43;2.23;;;0.70;99.90;0.50;101580.00;;;;4895598;28;113828;-65
2024/01/20 08:57:50;;;;;;;4.33;2.90;;;0.80;99.90;0.50;101581.00;;;;4895621;28;107899;-65
2024/01/20 09:00:17;;;;;;;3.53;2.10;;;0.90;99.90;0.30;101581.00;;;;4896313;28;117126;-65
2024/01/20 09:02:43;;;;;;;2.80;2.60;;;1.00;99.90;0.20;101584.00;;;;4897718;28;110517;-66
2024/01/20 09:05:10;;;;;;;5.93;2.47;;;0.60;99.90;0.10;101569.00;;;;4901292;28;110177;-66
2024/01/20 09:07:36;;;;;;;4.20;2.70;;;0.50;99.90;-0.10;101576.00;;;;4899198;28;88788;-66
2024/01/20 09:10:03;;;;;;;4.63;3.37;;;0.50;99.90;-0.20;101584.00;;;;4897279;28;117781;-65
2024/01/20 09:12:30;;;;;;;3.53;1.90;;;0.80;99.90;-0.10;101580.00;;;;4896629;28;88569;-66
2024/01/20 09:14:57;;;;;;;4.53;2.43;;;0.30;99.90;-0.20;101583.00;;;;4904405;28;88016;-65
2024/01/20 09:17:22;;;;;;;5.63;3.37;;;0.30;99.90;-0.20;101582.00;;;;4907022;28;88087;-67
2024/01/20 09:19:48;;;;;;;2.93;2.43;;;0.20;99.90;-0.10;101585.00;;;;4899476;28;103564;-66
2024/01/20 09:22:14;;;;;;;4.17;2.43;;;0.20;99.90;-0.10;101597.00;;;;4900286;28;117312;-66
2024/01/20 09:24:39;;;;;;;2.93;2.40;;;0.30;99.90;-0.10;101600.00;;;;4899648;28;111069;-66
2024/01/20 09:27:05;;;;;;;2.77;2.53;;;0.40;99.90;-0.10;101602.00;;;;4901269;28;108490;-65
2024/01/20 09:29:31;;;;;;;2.50;2.30;;;0.30;99.90;-0.10;101605.00;;;;4899597;28;88535;-66
2024/01/20 09:31:57;;;;;;;3.97;2.90;;;0.30;99.90;-0.10;101604.00;;;;4895746;28;116659;-65
2024/01/20 09:34:22;;;;;;;4.80;3.50;;;0.30;99.90;-0.10;101602.00;;;;4902752;28;87938;-66
2024/01/20 09:36:50;;;;;;;3.13;2.33;;;0.20;99.90;-0.10;101614.00;;;;4900435;28;93975;-65
2024/01/20 09:39:16;;;;;;;5.53;2.93;;;0.20;99.90;-0.10;101618.00;;;;4898985;28;88175;-65
2024/01/20 09:41:42;;;;;;;3.77;2.60;;;0.40;99.90;0.00;101613.00;;;;4900391;28;88141;-65
2024/01/20 09:44:11;;;;;;;6.80;3.70;;;0.30;99.90;0.00;101601.00;;;;4901472;28;109012;-65
2024/01/20 09:46:37;;;;;;;3.87;2.60;;;0.30;99.90;0.20;101613.00;;;;4905623;28;88305;-65
2024/01/20 09:49:02;;;;;;;3.27;2.47;;;0.50;99.90;0.20;101606.00;;;;4898795;28;88422;-66
2024/01/20 09:51:29;;;;;;;2.70;2.50;;;0.60;99.90;0.40;101607.00;;;;4897050;28;116996;-67
2024/01/20 09:54:00;;;;;;;3.60;2.23;;;0.70;99.90;0.40;101613.00;;;;4900321;28;87993;-66
2024/01/20 09:56:27;;;;;;;3.67;2.77;;;0.80;99.90;0.70;101605.00;;;;4900250;28;88593;-66
2024/01/20 09:58:58;;;;;;;2.63;1.97;;;0.90;99.90;1.00;101606.00;;;;4906451;28;105984;-66
2024/01/20 10:01:26;;;;;;;3.77;2.43;;;1.30;99.90;1.20;101605.00;;;;4900789;28;105194;-65
2024/01/20 10:03:54;;;;;;;2.80;2.43;;;1.50;99.90;1.50;101605.00;;;;4899432;28;109347;-65
2024/01/20 10:06:20;;;;;;;2.93;2.53;;;1.80;99.90;1.70;101605.00;;;;4897656;28;87936;-66
2024/01/20 10:08:46;;;;;;;2.13;1.53;;;2.00;99.90;1.90;101599.00;;;;4896839;28;88548;-66
2024/01/20 10:11:12;;;;;;;3.23;2.13;;;2.00;99.90;2.10;101609.00;;;;4901138;28;88788;-66
2024/01/20 10:13:38;;;;;;;2.50;2.20;;;2.30;99.90;2.20;101608.00;;;;4903695;28;108996;-67
2024/01/20 10:16:04;;;;;;;2.67;2.47;;;2.40;99.90;2.40;101598.00;;;;4900611;28;106914;-66
2024/01/20 10:18:29;;;;;;;2.47;1.90;;;2.70;99.20;2.40;101612.00;;;;4897274;28;106842;-66
2024/01/20 10:21:08;;;;;;;4.33;2.40;;;2.70;99.60;2.60;101599.00;;;;4894531;28;116731;-66
2024/01/20 10:23:36;;;;;;;3.37;2.43;;;3.30;99.90;2.80;101608.00;;;;4899912;28;88813;-66
2024/01/20 10:26:04;;;;;;;3.37;2.37;;;3.00;99.00;3.00;101604.00;;;;4897896;28;87989;-67
2024/01/20 10:28:30;;;;;;;2.73;2.53;;;3.20;99.20;3.10;101601.00;;;;4895584;28;88281;-68
2024/01/20 10:30:56;;;;;;;3.70;2.13;;;3.20;98.20;3.10;101608.00;;;;4896953;28;88510;-68
2024/01/20 10:33:22;;;;;;;3.43;3.00;;;3.30;97.50;3.10;101615.00;;;;4895527;28;88095;-68
2024/01/20 10:35:50;;;;;;;4.03;2.17;;;3.40;97.40;3.10;101606.00;;;;4899539;28;87665;-69
2024/01/20 10:38:20;;;;;;;3.10;1.90;;;3.40;96.70;3.20;101604.00;;;;4898394;28;87525;-69
2024/01/20 10:40:53;;;;;;;6.73;3.63;;;3.50;97.00;3.30;101621.00;;;;4895828;28;87920;-69